sensor_id;sensor_type;location;lat;lon;timestamp;P1;durP1;ratioP1;P2;durP2;ratioP2
21354;SDS011;10835;50.148;19.760;2023-10-19T00:01:25;10.73;;;4.50;;
21354;SDS011;10835;50.148;19.760;2023-10-19T00:03:55;12.00;;;5.53;;
21354;SDS011;10835;50.148;19.760;2023-10-19T00:06:22;13.27;;;5.97;;
21354;SDS011;10835;50.148;19.760;2023-10-19T00:08:51;5.82;;;3.92;;
21354;SDS011;10835;50.148;19.760;2023-10-19T00:11:19;10.38;;;5.05;;
21354;SDS011;10835;50.148;19.760;2023-10-19T00:13:51;12.68;;;6.60;;
21354;SDS011;10835;50.148;19.760;2023-10-19T00:16:21;11.88;;;6.63;;
21354;SDS011;10835;50.148;19.760;2023-10-19T00:18:56;11.10;;;5.90;;
21354;SDS011;10835;50.148;19.760;2023-10-19T00:21:26;12.30;;;5.75;;
21354;SDS011;10835;50.148;19.760;2023-10-19T00:23:55;8.30;;;4.18;;
21354;SDS011;10835;50.148;19.760;2023-10-19T00:26:24;11.48;;;5.60;;
21354;SDS011;10835;50.148;19.760;2023-10-19T00:28:57;15.25;;;5.90;;
21354;SDS011;10835;50.148;19.760;2023-10-19T00:31:33;10.98;;;5.78;;
21354;SDS011;10835;50.148;19.760;2023-10-19T00:34:07;15.88;;;6.93;;
21354;SDS011;10835;50.148;19.760;2023-10-19T00:36:35;9.75;;;6.00;;
21354;SDS011;10835;50.148;19.760;2023-10-19T00:39:05;16.25;;;6.78;;
21354;SDS011;10835;50.148;19.760;2023-10-19T00:41:41;14.85;;;6.68;;
21354;SDS011;10835;50.148;19.760;2023-10-19T00:44:12;10.90;;;6.10;;
21354;SDS011;10835;50.148;19.760;2023-10-19T00:46:50;10.85;;;5.30;;
21354;SDS011;10835;50.148;19.760;2023-10-19T00:49:29;14.20;;;6.22;;
21354;SDS011;10835;50.148;19.760;2023-10-19T00:51:59;11.00;;;6.18;;
21354;SDS011;10835;50.148;19.760;2023-10-19T00:54:39;14.02;;;6.43;;
21354;SDS011;10835;50.148;19.760;2023-10-19T00:57:17;10.68;;;5.55;;
21354;SDS011;10835;50.148;19.760;2023-10-19T00:59:49;12.70;;;6.15;;
21354;SDS011;10835;50.148;19.760;2023-10-19T01:02:21;19.17;;;7.10;;
21354;SDS011;10835;50.148;19.760;2023-10-19T01:04:57;12.35;;;6.18;;
21354;SDS011;10835;50.148;19.760;2023-10-19T01:07:29;12.15;;;6.22;;
21354;SDS011;10835;50.148;19.760;2023-10-19T01:10:00;14.82;;;6.60;;
21354;SDS011;10835;50.148;19.760;2023-10-19T01:12:32;10.93;;;5.30;;
21354;SDS011;10835;50.148;19.760;2023-10-19T01:15:07;14.27;;;6.78;;
21354;SDS011;10835;50.148;19.760;2023-10-19T01:17:41;10.15;;;6.05;;
21354;SDS011;10835;50.148;19.760;2023-10-19T01:20:11;12.50;;;5.50;;
21354;SDS011;10835;50.148;19.760;2023-10-19T01:22:51;11.85;;;6.13;;
21354;SDS011;10835;50.148;19.760;2023-10-19T01:25:32;16.42;;;8.48;;
21354;SDS011;10835;50.148;19.760;2023-10-19T01:28:11;14.70;;;6.90;;
21354;SDS011;10835;50.148;19.760;2023-10-19T01:30:44;10.57;;;5.95;;
21354;SDS011;10835;50.148;19.760;2023-10-19T01:33:18;8.88;;;5.05;;
21354;SDS011;10835;50.148;19.760;2023-10-19T01:35:47;13.80;;;6.28;;
21354;SDS011;10835;50.148;19.760;2023-10-19T01:38:36;15.75;;;6.95;;
21354;SDS011;10835;50.148;19.760;2023-10-19T01:41:05;15.45;;;7.97;;
21354;SDS011;10835;50.148;19.760;2023-10-19T01:43:40;16.95;;;7.13;;
21354;SDS011;10835;50.148;19.760;2023-10-19T01:46:11;13.65;;;6.38;;
21354;SDS011;10835;50.148;19.760;2023-10-19T01:48:40;14.70;;;6.97;;
21354;SDS011;10835;50.148;19.760;2023-10-19T01:51:10;10.18;;;5.10;;
21354;SDS011;10835;50.148;19.760;2023-10-19T01:53:42;13.57;;;5.80;;
21354;SDS011;10835;50.148;19.760;2023-10-19T01:56:12;11.95;;;5.30;;
21354;SDS011;10835;50.148;19.760;2023-10-19T01:58:42;11.55;;;5.78;;
21354;SDS011;10835;50.148;19.760;2023-10-19T02:01:14;11.07;;;6.25;;
21354;SDS011;10835;50.148;19.760;2023-10-19T02:03:47;9.95;;;5.85;;
21354;SDS011;10835;50.148;19.760;2023-10-19T02:06:22;10.93;;;5.50;;
21354;SDS011;10835;50.148;19.760;2023-10-19T02:08:55;13.35;;;5.78;;
21354;SDS011;10835;50.148;19.760;2023-10-19T02:11:27;11.27;;;5.35;;
21354;SDS011;10835;50.148;19.760;2023-10-19T02:13:55;17.48;;;5.80;;
21354;SDS011;10835;50.148;19.760;2023-10-19T02:16:26;14.90;;;6.53;;
21354;SDS011;10835;50.148;19.760;2023-10-19T02:18:56;19.67;;;7.43;;
21354;SDS011;10835;50.148;19.760;2023-10-19T02:21:24;31.35;;;9.52;;
21354;SDS011;10835;50.148;19.760;2023-10-19T02:23:56;23.13;;;8.35;;
21354;SDS011;10835;50.148;19.760;2023-10-19T02:26:25;16.45;;;7.53;;
21354;SDS011;10835;50.148;19.760;2023-10-19T02:28:54;18.58;;;6.90;;
21354;SDS011;10835;50.148;19.760;2023-10-19T02:31:25;11.20;;;5.20;;
21354;SDS011;10835;50.148;19.760;2023-10-19T02:33:53;11.00;;;6.18;;
21354;SDS011;10835;50.148;19.760;2023-10-19T02:36:26;13.27;;;6.22;;
21354;SDS011;10835;50.148;19.760;2023-10-19T02:38:57;14.60;;;6.50;;
21354;SDS011;10835;50.148;19.760;2023-10-19T02:41:26;10.30;;;5.00;;
21354;SDS011;10835;50.148;19.760;2023-10-19T02:43:55;11.80;;;6.15;;
21354;SDS011;10835;50.148;19.760;2023-10-19T02:46:34;12.45;;;5.10;;
21354;SDS011;10835;50.148;19.760;2023-10-19T02:49:06;9.32;;;4.80;;
21354;SDS011;10835;50.148;19.760;2023-10-19T02:51:38;11.52;;;4.28;;
21354;SDS011;10835;50.148;19.760;2023-10-19T02:54:08;10.45;;;5.38;;
21354;SDS011;10835;50.148;19.760;2023-10-19T02:56:44;8.52;;;4.85;;
21354;SDS011;10835;50.148;19.760;2023-10-19T02:59:15;9.93;;;5.07;;
21354;SDS011;10835;50.148;19.760;2023-10-19T03:01:49;10.93;;;5.72;;
21354;SDS011;10835;50.148;19.760;2023-10-19T03:04:17;14.23;;;6.80;;
21354;SDS011;10835;50.148;19.760;2023-10-19T03:06:47;10.45;;;4.88;;
21354;SDS011;10835;50.148;19.760;2023-10-19T03:09:16;12.93;;;5.90;;
21354;SDS011;10835;50.148;19.760;2023-10-19T03:11:50;10.60;;;5.75;;
21354;SDS011;10835;50.148;19.760;2023-10-19T03:14:19;10.23;;;5.50;;
21354;SDS011;10835;50.148;19.760;2023-10-19T03:16:51;11.23;;;5.35;;
21354;SDS011;10835;50.148;19.760;2023-10-19T03:19:21;10.63;;;4.45;;
21354;SDS011;10835;50.148;19.760;2023-10-19T03:21:52;10.77;;;5.25;;
21354;SDS011;10835;50.148;19.760;2023-10-19T03:24:24;9.65;;;5.38;;
21354;SDS011;10835;50.148;19.760;2023-10-19T03:27:10;12.07;;;5.53;;
21354;SDS011;10835;50.148;19.760;2023-10-19T03:29:41;11.77;;;5.40;;
21354;SDS011;10835;50.148;19.760;2023-10-19T03:32:15;16.27;;;6.10;;
21354;SDS011;10835;50.148;19.760;2023-10-19T03:34:44;9.45;;;5.15;;
21354;SDS011;10835;50.148;19.760;2023-10-19T03:37:15;10.85;;;5.43;;
21354;SDS011;10835;50.148;19.760;2023-10-19T03:39:48;8.38;;;5.00;;
21354;SDS011;10835;50.148;19.760;2023-10-19T03:42:18;12.27;;;4.93;;
21354;SDS011;10835;50.148;19.760;2023-10-19T03:44:47;8.88;;;4.57;;
21354;SDS011;10835;50.148;19.760;2023-10-19T03:47:21;12.73;;;5.60;;
21354;SDS011;10835;50.148;19.760;2023-10-19T03:49:55;10.93;;;5.82;;
21354;SDS011;10835;50.148;19.760;2023-10-19T03:52:27;9.98;;;5.18;;
21354;SDS011;10835;50.148;19.760;2023-10-19T03:54:58;10.32;;;5.10;;
21354;SDS011;10835;50.148;19.760;2023-10-19T03:57:27;11.95;;;5.40;;
21354;SDS011;10835;50.148;19.760;2023-10-19T03:59:57;10.88;;;5.68;;
21354;SDS011;10835;50.148;19.760;2023-10-19T04:02:25;8.45;;;5.03;;
21354;SDS011;10835;50.148;19.760;2023-10-19T04:04:56;12.55;;;6.53;;
21354;SDS011;10835;50.148;19.760;2023-10-19T04:07:25;10.15;;;5.07;;
21354;SDS011;10835;50.148;19.760;2023-10-19T04:09:59;11.23;;;6.15;;
21354;SDS011;10835;50.148;19.760;2023-10-19T04:12:37;12.85;;;6.05;;
21354;SDS011;10835;50.148;19.760;2023-10-19T04:15:09;11.02;;;5.72;;
21354;SDS011;10835;50.148;19.760;2023-10-19T04:17:44;8.68;;;4.78;;
21354;SDS011;10835;50.148;19.760;2023-10-19T04:20:14;9.75;;;5.03;;
21354;SDS011;10835;50.148;19.760;2023-10-19T04:22:56;9.70;;;5.20;;
21354;SDS011;10835;50.148;19.760;2023-10-19T04:25:34;12.65;;;6.05;;
21354;SDS011;10835;50.148;19.760;2023-10-19T04:28:02;12.25;;;5.82;;
21354;SDS011;10835;50.148;19.760;2023-10-19T04:30:32;12.73;;;6.97;;
21354;SDS011;10835;50.148;19.760;2023-10-19T04:33:04;16.35;;;6.43;;
21354;SDS011;10835;50.148;19.760;2023-10-19T04:35:36;13.50;;;6.53;;
21354;SDS011;10835;50.148;19.760;2023-10-19T04:38:08;17.17;;;7.80;;
21354;SDS011;10835;50.148;19.760;2023-10-19T04:40:38;11.18;;;6.35;;
21354;SDS011;10835;50.148;19.760;2023-10-19T04:43:06;14.98;;;6.95;;
21354;SDS011;10835;50.148;19.760;2023-10-19T04:45:35;13.95;;;7.60;;
21354;SDS011;10835;50.148;19.760;2023-10-19T04:48:07;12.48;;;7.53;;
21354;SDS011;10835;50.148;19.760;2023-10-19T04:50:36;14.52;;;7.75;;
21354;SDS011;10835;50.148;19.760;2023-10-19T04:53:06;14.20;;;7.90;;
21354;SDS011;10835;50.148;19.760;2023-10-19T04:55:34;14.63;;;7.25;;
21354;SDS011;10835;50.148;19.760;2023-10-19T04:58:04;13.85;;;7.22;;
21354;SDS011;10835;50.148;19.760;2023-10-19T05:00:33;12.63;;;7.13;;
21354;SDS011;10835;50.148;19.760;2023-10-19T05:03:01;14.25;;;7.53;;
21354;SDS011;10835;50.148;19.760;2023-10-19T05:05:30;16.85;;;8.10;;
21354;SDS011;10835;50.148;19.760;2023-10-19T05:07:58;14.50;;;6.95;;
21354;SDS011;10835;50.148;19.760;2023-10-19T05:10:28;17.25;;;8.07;;
21354;SDS011;10835;50.148;19.760;2023-10-19T05:12:57;13.88;;;7.95;;
21354;SDS011;10835;50.148;19.760;2023-10-19T05:15:27;16.88;;;8.15;;
21354;SDS011;10835;50.148;19.760;2023-10-19T05:17:55;19.95;;;9.48;;
21354;SDS011;10835;50.148;19.760;2023-10-19T05:20:24;18.92;;;9.98;;
21354;SDS011;10835;50.148;19.760;2023-10-19T05:22:52;22.15;;;9.73;;
21354;SDS011;10835;50.148;19.760;2023-10-19T05:25:23;16.85;;;8.38;;
21354;SDS011;10835;50.148;19.760;2023-10-19T05:27:51;19.42;;;9.00;;
21354;SDS011;10835;50.148;19.760;2023-10-19T05:30:19;15.75;;;8.73;;
21354;SDS011;10835;50.148;19.760;2023-10-19T05:32:51;19.90;;;10.15;;
21354;SDS011;10835;50.148;19.760;2023-10-19T05:35:22;21.15;;;9.57;;
21354;SDS011;10835;50.148;19.760;2023-10-19T05:37:53;23.38;;;11.00;;
21354;SDS011;10835;50.148;19.760;2023-10-19T05:40:23;21.42;;;11.43;;
21354;SDS011;10835;50.148;19.760;2023-10-19T05:42:56;24.55;;;11.25;;
21354;SDS011;10835;50.148;19.760;2023-10-19T05:45:27;55.63;;;23.50;;
21354;SDS011;10835;50.148;19.760;2023-10-19T05:47:57;42.17;;;16.05;;
21354;SDS011;10835;50.148;19.760;2023-10-19T05:50:26;27.83;;;13.40;;
21354;SDS011;10835;50.148;19.760;2023-10-19T05:52:55;27.13;;;12.38;;
21354;SDS011;10835;50.148;19.760;2023-10-19T05:55:24;26.85;;;11.23;;
21354;SDS011;10835;50.148;19.760;2023-10-19T05:57:52;18.27;;;9.93;;
21354;SDS011;10835;50.148;19.760;2023-10-19T06:00:21;25.13;;;9.98;;
21354;SDS011;10835;50.148;19.760;2023-10-19T06:02:52;18.83;;;9.35;;
21354;SDS011;10835;50.148;19.760;2023-10-19T06:05:22;18.15;;;8.60;;
21354;SDS011;10835;50.148;19.760;2023-10-19T06:07:51;19.00;;;10.00;;
21354;SDS011;10835;50.148;19.760;2023-10-19T06:10:20;18.60;;;9.45;;
21354;SDS011;10835;50.148;19.760;2023-10-19T06:12:49;21.13;;;9.90;;
21354;SDS011;10835;50.148;19.760;2023-10-19T06:15:19;20.45;;;10.00;;
21354;SDS011;10835;50.148;19.760;2023-10-19T06:17:50;21.90;;;9.52;;
21354;SDS011;10835;50.148;19.760;2023-10-19T06:20:19;22.65;;;11.32;;
21354;SDS011;10835;50.148;19.760;2023-10-19T06:22:53;24.38;;;11.02;;
21354;SDS011;10835;50.148;19.760;2023-10-19T06:25:23;19.67;;;10.77;;
21354;SDS011;10835;50.148;19.760;2023-10-19T06:27:54;22.80;;;11.50;;
21354;SDS011;10835;50.148;19.760;2023-10-19T06:30:24;21.23;;;10.43;;
21354;SDS011;10835;50.148;19.760;2023-10-19T06:32:53;17.30;;;9.27;;
21354;SDS011;10835;50.148;19.760;2023-10-19T06:35:23;16.70;;;9.55;;
21354;SDS011;10835;50.148;19.760;2023-10-19T06:37:54;16.30;;;8.75;;
21354;SDS011;10835;50.148;19.760;2023-10-19T06:40:23;19.63;;;10.48;;
21354;SDS011;10835;50.148;19.760;2023-10-19T06:42:54;19.77;;;11.25;;
21354;SDS011;10835;50.148;19.760;2023-10-19T06:45:23;17.90;;;10.05;;
21354;SDS011;10835;50.148;19.760;2023-10-19T06:47:53;21.05;;;10.27;;
21354;SDS011;10835;50.148;19.760;2023-10-19T06:50:22;13.10;;;6.93;;
21354;SDS011;10835;50.148;19.760;2023-10-19T06:52:53;19.05;;;10.63;;
21354;SDS011;10835;50.148;19.760;2023-10-19T06:55:22;16.52;;;9.13;;
21354;SDS011;10835;50.148;19.760;2023-10-19T06:57:51;19.45;;;9.98;;
21354;SDS011;10835;50.148;19.760;2023-10-19T07:00:22;21.98;;;10.48;;
21354;SDS011;10835;50.148;19.760;2023-10-19T07:02:54;18.55;;;10.27;;
21354;SDS011;10835;50.148;19.760;2023-10-19T07:05:23;19.48;;;9.90;;
21354;SDS011;10835;50.148;19.760;2023-10-19T07:07:53;16.42;;;8.45;;
21354;SDS011;10835;50.148;19.760;2023-10-19T07:10:23;17.17;;;8.32;;
21354;SDS011;10835;50.148;19.760;2023-10-19T07:12:52;22.23;;;11.00;;
21354;SDS011;10835;50.148;19.760;2023-10-19T07:15:23;20.42;;;10.65;;
21354;SDS011;10835;50.148;19.760;2023-10-19T07:17:52;19.27;;;10.93;;
21354;SDS011;10835;50.148;19.760;2023-10-19T07:20:21;17.83;;;10.40;;
21354;SDS011;10835;50.148;19.760;2023-10-19T07:22:56;24.15;;;12.50;;
21354;SDS011;10835;50.148;19.760;2023-10-19T07:25:27;22.25;;;10.68;;
21354;SDS011;10835;50.148;19.760;2023-10-19T07:27:56;24.98;;;11.98;;
21354;SDS011;10835;50.148;19.760;2023-10-19T07:30:26;23.27;;;11.73;;
21354;SDS011;10835;50.148;19.760;2023-10-19T07:32:57;17.77;;;11.02;;
21354;SDS011;10835;50.148;19.760;2023-10-19T07:35:26;18.75;;;11.30;;
21354;SDS011;10835;50.148;19.760;2023-10-19T07:38:02;22.05;;;10.48;;
21354;SDS011;10835;50.148;19.760;2023-10-19T07:40:33;17.13;;;10.25;;
21354;SDS011;10835;50.148;19.760;2023-10-19T07:43:02;17.58;;;11.32;;
21354;SDS011;10835;50.148;19.760;2023-10-19T07:45:31;17.95;;;11.23;;
21354;SDS011;10835;50.148;19.760;2023-10-19T07:48:02;19.42;;;10.65;;
21354;SDS011;10835;50.148;19.760;2023-10-19T07:50:34;16.45;;;9.68;;
21354;SDS011;10835;50.148;19.760;2023-10-19T07:53:04;18.88;;;10.45;;
21354;SDS011;10835;50.148;19.760;2023-10-19T07:55:33;15.88;;;9.68;;
21354;SDS011;10835;50.148;19.760;2023-10-19T07:58:03;18.77;;;10.75;;
21354;SDS011;10835;50.148;19.760;2023-10-19T08:00:33;14.05;;;7.88;;
21354;SDS011;10835;50.148;19.760;2023-10-19T08:03:02;14.60;;;8.15;;
21354;SDS011;10835;50.148;19.760;2023-10-19T08:05:32;16.63;;;8.98;;
21354;SDS011;10835;50.148;19.760;2023-10-19T08:08:01;13.27;;;8.35;;
21354;SDS011;10835;50.148;19.760;2023-10-19T08:10:33;15.00;;;8.30;;
21354;SDS011;10835;50.148;19.760;2023-10-19T08:13:02;14.77;;;7.90;;
21354;SDS011;10835;50.148;19.760;2023-10-19T08:15:34;15.48;;;8.88;;
21354;SDS011;10835;50.148;19.760;2023-10-19T08:18:05;15.05;;;8.23;;
21354;SDS011;10835;50.148;19.760;2023-10-19T08:20:35;12.82;;;7.30;;
21354;SDS011;10835;50.148;19.760;2023-10-19T08:23:04;13.98;;;7.63;;
21354;SDS011;10835;50.148;19.760;2023-10-19T08:25:34;13.52;;;7.35;;
21354;SDS011;10835;50.148;19.760;2023-10-19T08:28:21;14.95;;;7.80;;
21354;SDS011;10835;50.148;19.760;2023-10-19T08:30:51;13.18;;;7.55;;
21354;SDS011;10835;50.148;19.760;2023-10-19T08:33:30;9.20;;;6.32;;
21354;SDS011;10835;50.148;19.760;2023-10-19T08:36:01;9.07;;;6.40;;
21354;SDS011;10835;50.148;19.760;2023-10-19T08:38:29;11.25;;;6.88;;
21354;SDS011;10835;50.148;19.760;2023-10-19T08:41:02;12.70;;;6.93;;
21354;SDS011;10835;50.148;19.760;2023-10-19T08:43:31;10.63;;;6.65;;
21354;SDS011;10835;50.148;19.760;2023-10-19T08:46:00;12.63;;;6.68;;
21354;SDS011;10835;50.148;19.760;2023-10-19T08:48:32;13.13;;;7.03;;
21354;SDS011;10835;50.148;19.760;2023-10-19T08:51:03;13.93;;;7.43;;
21354;SDS011;10835;50.148;19.760;2023-10-19T08:53:37;11.23;;;6.45;;
21354;SDS011;10835;50.148;19.760;2023-10-19T08:56:09;15.75;;;6.95;;
21354;SDS011;10835;50.148;19.760;2023-10-19T08:58:39;10.32;;;6.32;;
21354;SDS011;10835;50.148;19.760;2023-10-19T09:01:08;11.80;;;6.95;;
21354;SDS011;10835;50.148;19.760;2023-10-19T09:03:37;13.27;;;7.32;;
21354;SDS011;10835;50.148;19.760;2023-10-19T09:06:07;12.77;;;7.25;;
21354;SDS011;10835;50.148;19.760;2023-10-19T09:08:35;10.63;;;6.53;;
21354;SDS011;10835;50.148;19.760;2023-10-19T09:11:07;9.77;;;6.55;;
21354;SDS011;10835;50.148;19.760;2023-10-19T09:13:44;11.50;;;6.20;;
21354;SDS011;10835;50.148;19.760;2023-10-19T09:16:15;11.18;;;6.18;;
21354;SDS011;10835;50.148;19.760;2023-10-19T09:18:44;11.07;;;5.97;;
21354;SDS011;10835;50.148;19.760;2023-10-19T09:21:15;11.50;;;6.53;;
21354;SDS011;10835;50.148;19.760;2023-10-19T09:23:51;11.70;;;6.10;;
21354;SDS011;10835;50.148;19.760;2023-10-19T09:26:22;10.90;;;5.72;;
21354;SDS011;10835;50.148;19.760;2023-10-19T09:28:52;9.13;;;5.85;;
21354;SDS011;10835;50.148;19.760;2023-10-19T09:31:22;12.07;;;6.47;;
21354;SDS011;10835;50.148;19.760;2023-10-19T09:33:52;12.45;;;6.40;;
21354;SDS011;10835;50.148;19.760;2023-10-19T09:36:22;12.23;;;7.05;;
21354;SDS011;10835;50.148;19.760;2023-10-19T09:38:54;11.70;;;7.38;;
21354;SDS011;10835;50.148;19.760;2023-10-19T09:41:26;13.43;;;6.90;;
21354;SDS011;10835;50.148;19.760;2023-10-19T09:43:57;12.77;;;7.38;;
21354;SDS011;10835;50.148;19.760;2023-10-19T09:46:32;13.15;;;7.15;;
21354;SDS011;10835;50.148;19.760;2023-10-19T09:49:05;11.98;;;7.53;;
21354;SDS011;10835;50.148;19.760;2023-10-19T09:51:38;11.45;;;6.65;;
21354;SDS011;10835;50.148;19.760;2023-10-19T09:54:22;15.35;;;7.53;;
21354;SDS011;10835;50.148;19.760;2023-10-19T09:57:03;13.10;;;7.40;;
21354;SDS011;10835;50.148;19.760;2023-10-19T09:59:40;14.18;;;7.18;;
21354;SDS011;10835;50.148;19.760;2023-10-19T10:02:09;11.77;;;7.22;;
21354;SDS011;10835;50.148;19.760;2023-10-19T10:04:40;14.25;;;7.35;;
21354;SDS011;10835;50.148;19.760;2023-10-19T10:07:12;14.38;;;7.95;;
21354;SDS011;10835;50.148;19.760;2023-10-19T10:09:57;12.73;;;6.75;;
21354;SDS011;10835;50.148;19.760;2023-10-19T10:12:27;12.25;;;7.22;;
21354;SDS011;10835;50.148;19.760;2023-10-19T10:14:56;15.75;;;8.18;;
21354;SDS011;10835;50.148;19.760;2023-10-19T10:17:26;14.25;;;7.72;;
21354;SDS011;10835;50.148;19.760;2023-10-19T10:19:56;12.80;;;7.70;;
21354;SDS011;10835;50.148;19.760;2023-10-19T10:23:16;14.27;;;7.40;;
21354;SDS011;10835;50.148;19.760;2023-10-19T10:25:53;15.35;;;7.43;;
21354;SDS011;10835;50.148;19.760;2023-10-19T10:28:23;13.10;;;7.60;;
21354;SDS011;10835;50.148;19.760;2023-10-19T10:33:49;10.30;;;6.70;;
21354;SDS011;10835;50.148;19.760;2023-10-19T10:36:21;13.55;;;7.38;;
21354;SDS011;10835;50.148;19.760;2023-10-19T10:38:50;17.70;;;7.72;;
21354;SDS011;10835;50.148;19.760;2023-10-19T10:41:22;11.65;;;7.07;;
21354;SDS011;10835;50.148;19.760;2023-10-19T10:43:57;13.07;;;7.38;;
21354;SDS011;10835;50.148;19.760;2023-10-19T10:46:27;16.40;;;8.45;;
21354;SDS011;10835;50.148;19.760;2023-10-19T10:48:57;13.40;;;7.93;;
21354;SDS011;10835;50.148;19.760;2023-10-19T10:51:26;18.65;;;9.13;;
21354;SDS011;10835;50.148;19.760;2023-10-19T10:53:57;17.67;;;7.90;;
21354;SDS011;10835;50.148;19.760;2023-10-19T10:56:26;13.15;;;7.82;;
21354;SDS011;10835;50.148;19.760;2023-10-19T10:58:56;15.93;;;8.35;;
21354;SDS011;10835;50.148;19.760;2023-10-19T11:01:28;15.50;;;8.05;;
21354;SDS011;10835;50.148;19.760;2023-10-19T11:04:07;13.77;;;7.95;;
21354;SDS011;10835;50.148;19.760;2023-10-19T11:06:49;14.32;;;8.95;;
21354;SDS011;10835;50.148;19.760;2023-10-19T11:09:19;15.23;;;8.68;;
21354;SDS011;10835;50.148;19.760;2023-10-19T11:11:48;16.27;;;9.35;;
21354;SDS011;10835;50.148;19.760;2023-10-19T11:14:20;18.10;;;9.30;;
21354;SDS011;10835;50.148;19.760;2023-10-19T11:16:51;13.27;;;8.35;;
21354;SDS011;10835;50.148;19.760;2023-10-19T11:19:20;17.60;;;9.18;;
21354;SDS011;10835;50.148;19.760;2023-10-19T11:21:52;18.05;;;9.02;;
21354;SDS011;10835;50.148;19.760;2023-10-19T11:24:25;14.82;;;9.15;;
21354;SDS011;10835;50.148;19.760;2023-10-19T11:26:58;18.60;;;10.15;;
21354;SDS011;10835;50.148;19.760;2023-10-19T11:29:28;16.30;;;9.57;;
21354;SDS011;10835;50.148;19.760;2023-10-19T11:31:57;18.35;;;9.43;;
21354;SDS011;10835;50.148;19.760;2023-10-19T11:34:27;16.23;;;9.15;;
21354;SDS011;10835;50.148;19.760;2023-10-19T11:36:59;14.32;;;9.27;;
21354;SDS011;10835;50.148;19.760;2023-10-19T11:39:30;15.25;;;8.88;;
21354;SDS011;10835;50.148;19.760;2023-10-19T11:41:58;14.55;;;8.60;;
21354;SDS011;10835;50.148;19.760;2023-10-19T11:44:29;11.75;;;7.55;;
21354;SDS011;10835;50.148;19.760;2023-10-19T11:46:58;15.52;;;8.30;;
21354;SDS011;10835;50.148;19.760;2023-10-19T11:49:27;17.77;;;8.70;;
21354;SDS011;10835;50.148;19.760;2023-10-19T11:51:56;15.82;;;9.45;;
21354;SDS011;10835;50.148;19.760;2023-10-19T11:54:24;18.75;;;8.30;;
21354;SDS011;10835;50.148;19.760;2023-10-19T11:56:53;14.73;;;8.75;;
21354;SDS011;10835;50.148;19.760;2023-10-19T11:59:21;15.35;;;8.43;;
21354;SDS011;10835;50.148;19.760;2023-10-19T12:01:51;19.38;;;9.13;;
21354;SDS011;10835;50.148;19.760;2023-10-19T12:04:21;17.88;;;8.98;;
21354;SDS011;10835;50.148;19.760;2023-10-19T12:06:50;13.90;;;9.02;;
21354;SDS011;10835;50.148;19.760;2023-10-19T12:09:19;16.85;;;9.27;;
21354;SDS011;10835;50.148;19.760;2023-10-19T12:11:51;15.23;;;8.20;;
21354;SDS011;10835;50.148;19.760;2023-10-19T12:14:21;15.60;;;8.07;;
21354;SDS011;10835;50.148;19.760;2023-10-19T12:16:51;14.30;;;8.38;;
21354;SDS011;10835;50.148;19.760;2023-10-19T12:19:19;15.40;;;8.80;;
21354;SDS011;10835;50.148;19.760;2023-10-19T12:21:48;14.90;;;9.30;;
21354;SDS011;10835;50.148;19.760;2023-10-19T12:24:18;14.90;;;8.95;;
21354;SDS011;10835;50.148;19.760;2023-10-19T12:26:48;13.50;;;7.50;;
21354;SDS011;10835;50.148;19.760;2023-10-19T12:29:17;12.52;;;7.57;;
21354;SDS011;10835;50.148;19.760;2023-10-19T12:31:49;13.27;;;7.63;;
21354;SDS011;10835;50.148;19.760;2023-10-19T12:34:19;11.73;;;7.45;;
21354;SDS011;10835;50.148;19.760;2023-10-19T12:36:48;18.05;;;8.25;;
21354;SDS011;10835;50.148;19.760;2023-10-19T12:39:18;11.20;;;7.53;;
21354;SDS011;10835;50.148;19.760;2023-10-19T12:42:01;14.02;;;7.28;;
21354;SDS011;10835;50.148;19.760;2023-10-19T12:44:30;12.30;;;7.50;;
21354;SDS011;10835;50.148;19.760;2023-10-19T12:47:06;15.57;;;9.15;;
21354;SDS011;10835;50.148;19.760;2023-10-19T12:49:38;15.90;;;7.68;;
21354;SDS011;10835;50.148;19.760;2023-10-19T12:52:07;14.90;;;8.20;;
21354;SDS011;10835;50.148;19.760;2023-10-19T12:54:36;14.48;;;8.35;;
21354;SDS011;10835;50.148;19.760;2023-10-19T12:57:05;13.80;;;7.85;;
21354;SDS011;10835;50.148;19.760;2023-10-19T12:59:34;14.52;;;7.68;;
21354;SDS011;10835;50.148;19.760;2023-10-19T13:02:04;12.85;;;7.53;;
21354;SDS011;10835;50.148;19.760;2023-10-19T13:04:35;18.27;;;7.45;;
21354;SDS011;10835;50.148;19.760;2023-10-19T13:07:06;13.40;;;8.23;;
21354;SDS011;10835;50.148;19.760;2023-10-19T13:09:34;14.10;;;8.32;;
21354;SDS011;10835;50.148;19.760;2023-10-19T13:12:03;17.40;;;8.07;;
21354;SDS011;10835;50.148;19.760;2023-10-19T13:14:34;17.70;;;9.50;;
21354;SDS011;10835;50.148;19.760;2023-10-19T13:17:03;14.80;;;9.30;;
21354;SDS011;10835;50.148;19.760;2023-10-19T13:19:32;15.27;;;8.85;;
21354;SDS011;10835;50.148;19.760;2023-10-19T13:22:03;15.93;;;9.05;;
21354;SDS011;10835;50.148;19.760;2023-10-19T13:24:35;15.65;;;9.38;;
21354;SDS011;10835;50.148;19.760;2023-10-19T13:27:08;16.77;;;9.35;;
21354;SDS011;10835;50.148;19.760;2023-10-19T13:29:37;16.73;;;9.57;;
21354;SDS011;10835;50.148;19.760;2023-10-19T13:32:08;17.90;;;10.57;;
21354;SDS011;10835;50.148;19.760;2023-10-19T13:34:37;14.45;;;9.27;;
21354;SDS011;10835;50.148;19.760;2023-10-19T13:37:07;14.90;;;9.27;;
21354;SDS011;10835;50.148;19.760;2023-10-19T13:39:37;18.15;;;9.18;;
21354;SDS011;10835;50.148;19.760;2023-10-19T13:42:06;18.17;;;10.07;;
21354;SDS011;10835;50.148;19.760;2023-10-19T13:44:54;19.40;;;10.88;;
21354;SDS011;10835;50.148;19.760;2023-10-19T13:47:26;17.73;;;9.75;;
21354;SDS011;10835;50.148;19.760;2023-10-19T13:49:54;17.30;;;10.20;;
21354;SDS011;10835;50.148;19.760;2023-10-19T13:52:23;15.05;;;9.70;;
21354;SDS011;10835;50.148;19.760;2023-10-19T13:54:53;23.25;;;11.50;;
21354;SDS011;10835;50.148;19.760;2023-10-19T13:57:22;31.42;;;12.38;;
21354;SDS011;10835;50.148;19.760;2023-10-19T13:59:51;19.35;;;11.25;;
21354;SDS011;10835;50.148;19.760;2023-10-19T14:02:20;19.77;;;11.05;;
21354;SDS011;10835;50.148;19.760;2023-10-19T14:04:49;17.40;;;10.48;;
21354;SDS011;10835;50.148;19.760;2023-10-19T14:07:18;24.52;;;11.05;;
21354;SDS011;10835;50.148;19.760;2023-10-19T14:09:47;17.08;;;11.63;;
21354;SDS011;10835;50.148;19.760;2023-10-19T14:12:16;16.95;;;10.70;;
21354;SDS011;10835;50.148;19.760;2023-10-19T14:14:45;17.88;;;11.65;;
21354;SDS011;10835;50.148;19.760;2023-10-19T14:17:13;15.77;;;9.50;;
21354;SDS011;10835;50.148;19.760;2023-10-19T14:19:43;16.73;;;9.40;;
21354;SDS011;10835;50.148;19.760;2023-10-19T14:22:12;16.38;;;10.00;;
21354;SDS011;10835;50.148;19.760;2023-10-19T14:24:42;14.60;;;9.27;;
21354;SDS011;10835;50.148;19.760;2023-10-19T14:27:12;22.52;;;12.05;;
21354;SDS011;10835;50.148;19.760;2023-10-19T14:29:42;30.45;;;16.10;;
21354;SDS011;10835;50.148;19.760;2023-10-19T14:32:11;29.58;;;14.88;;
21354;SDS011;10835;50.148;19.760;2023-10-19T14:34:39;18.48;;;11.80;;
21354;SDS011;10835;50.148;19.760;2023-10-19T14:37:08;21.13;;;11.95;;
21354;SDS011;10835;50.148;19.760;2023-10-19T14:39:37;21.80;;;11.90;;
21354;SDS011;10835;50.148;19.760;2023-10-19T14:42:05;18.95;;;11.57;;
21354;SDS011;10835;50.148;19.760;2023-10-19T14:44:35;23.80;;;11.10;;
21354;SDS011;10835;50.148;19.760;2023-10-19T14:47:05;19.60;;;11.18;;